sensor_id;sensor_type;location;lat;lon;timestamp;P1;durP1;ratioP1;P2;durP2;ratioP2
11771;SDS011;12556;55.748;13.194;2022-07-29T00:01:44;3.80;;;2.07;;
11771;SDS011;12556;55.748;13.194;2022-07-29T00:04:11;4.23;;;2.30;;
11771;SDS011;12556;55.748;13.194;2022-07-29T00:06:38;4.13;;;2.37;;
11771;SDS011;12556;55.748;13.194;2022-07-29T00:09:05;2.87;;;2.10;;
11771;SDS011;12556;55.748;13.194;2022-07-29T00:11:32;4.27;;;2.07;;
11771;SDS011;12556;55.748;13.194;2022-07-29T00:13:59;4.40;;;2.20;;
11771;SDS011;12556;55.748;13.194;2022-07-29T00:16:27;6.73;;;1.97;;
11771;SDS011;12556;55.748;13.194;2022-07-29T00:18:54;5.47;;;2.13;;
11771;SDS011;12556;55.748;13.194;2022-07-29T00:21:21;3.00;;;2.03;;
11771;SDS011;12556;55.748;13.194;2022-07-29T00:23:48;5.70;;;2.77;;
11771;SDS011;12556;55.748;13.194;2022-07-29T00:26:15;4.03;;;2.23;;
11771;SDS011;12556;55.748;13.194;2022-07-29T00:28:42;3.47;;;2.50;;
11771;SDS011;12556;55.748;13.194;2022-07-29T00:31:09;2.70;;;2.20;;
11771;SDS011;12556;55.748;13.194;2022-07-29T00:33:37;8.57;;;2.50;;
11771;SDS011;12556;55.748;13.194;2022-07-29T00:36:04;6.67;;;2.50;;
11771;SDS011;12556;55.748;13.194;2022-07-29T00:38:30;5.83;;;2.30;;
11771;SDS011;12556;55.748;13.194;2022-07-29T00:40:57;4.90;;;2.20;;
11771;SDS011;12556;55.748;13.194;2022-07-29T00:43:24;6.83;;;2.40;;
11771;SDS011;12556;55.748;13.194;2022-07-29T00:45:52;6.37;;;2.37;;
11771;SDS011;12556;55.748;13.194;2022-07-29T00:48:19;5.03;;;2.13;;
11771;SDS011;12556;55.748;13.194;2022-07-29T00:50:47;4.00;;;2.30;;
11771;SDS011;12556;55.748;13.194;2022-07-29T00:53:15;6.57;;;2.40;;
11771;SDS011;12556;55.748;13.194;2022-07-29T00:55:42;6.70;;;2.47;;
11771;SDS011;12556;55.748;13.194;2022-07-29T00:58:09;3.57;;;1.90;;
11771;SDS011;12556;55.748;13.194;2022-07-29T01:00:38;8.37;;;2.10;;
11771;SDS011;12556;55.748;13.194;2022-07-29T01:03:06;3.57;;;2.03;;
11771;SDS011;12556;55.748;13.194;2022-07-29T01:05:33;4.80;;;1.90;;
11771;SDS011;12556;55.748;13.194;2022-07-29T01:08:03;6.93;;;2.30;;
11771;SDS011;12556;55.748;13.194;2022-07-29T01:10:30;2.30;;;1.90;;
11771;SDS011;12556;55.748;13.194;2022-07-29T01:12:58;3.17;;;1.70;;
11771;SDS011;12556;55.748;13.194;2022-07-29T01:15:27;5.90;;;2.07;;
11771;SDS011;12556;55.748;13.194;2022-07-29T01:17:59;3.20;;;2.00;;
11771;SDS011;12556;55.748;13.194;2022-07-29T01:20:34;3.67;;;2.27;;
11771;SDS011;12556;55.748;13.194;2022-07-29T01:29:14;4.57;;;2.00;;
11771;SDS011;12556;55.748;13.194;2022-07-29T01:31:48;6.23;;;2.10;;
11771;SDS011;12556;55.748;13.194;2022-07-29T01:34:24;3.83;;;2.07;;
11771;SDS011;12556;55.748;13.194;2022-07-29T01:36:59;5.33;;;1.70;;
11771;SDS011;12556;55.748;13.194;2022-07-29T01:39:32;2.53;;;1.80;;
11771;SDS011;12556;55.748;13.194;2022-07-29T01:42:03;5.27;;;1.73;;
11771;SDS011;12556;55.748;13.194;2022-07-29T01:44:37;4.73;;;2.10;;
11771;SDS011;12556;55.748;13.194;2022-07-29T01:47:12;5.80;;;1.90;;
11771;SDS011;12556;55.748;13.194;2022-07-29T01:49:46;4.63;;;2.07;;
11771;SDS011;12556;55.748;13.194;2022-07-29T01:52:16;6.63;;;2.37;;
11771;SDS011;12556;55.748;13.194;2022-07-29T01:54:49;2.83;;;1.80;;
11771;SDS011;12556;55.748;13.194;2022-07-29T01:57:19;8.00;;;1.80;;
11771;SDS011;12556;55.748;13.194;2022-07-29T01:59:52;5.50;;;2.10;;
11771;SDS011;12556;55.748;13.194;2022-07-29T02:02:20;7.27;;;1.90;;
11771;SDS011;12556;55.748;13.194;2022-07-29T02:04:49;5.47;;;1.90;;
11771;SDS011;12556;55.748;13.194;2022-07-29T02:07:19;5.53;;;2.13;;
11771;SDS011;12556;55.748;13.194;2022-07-29T02:09:47;4.00;;;2.10;;
11771;SDS011;12556;55.748;13.194;2022-07-29T02:12:16;4.47;;;2.07;;
11771;SDS011;12556;55.748;13.194;2022-07-29T02:14:46;3.73;;;1.97;;
11771;SDS011;12556;55.748;13.194;2022-07-29T02:17:18;4.60;;;2.03;;
11771;SDS011;12556;55.748;13.194;2022-07-29T02:19:49;3.57;;;1.63;;
11771;SDS011;12556;55.748;13.194;2022-07-29T02:22:18;5.47;;;2.03;;
11771;SDS011;12556;55.748;13.194;2022-07-29T02:24:45;7.13;;;2.03;;
11771;SDS011;12556;55.748;13.194;2022-07-29T02:27:14;4.07;;;2.30;;
11771;SDS011;12556;55.748;13.194;2022-07-29T02:29:43;5.20;;;2.23;;
11771;SDS011;12556;55.748;13.194;2022-07-29T02:32:12;3.60;;;1.93;;
11771;SDS011;12556;55.748;13.194;2022-07-29T02:34:42;9.57;;;2.60;;
11771;SDS011;12556;55.748;13.194;2022-07-29T02:37:10;5.90;;;2.47;;
11771;SDS011;12556;55.748;13.194;2022-07-29T02:39:38;3.40;;;2.10;;
11771;SDS011;12556;55.748;13.194;2022-07-29T02:42:07;5.57;;;2.33;;
11771;SDS011;12556;55.748;13.194;2022-07-29T02:44:37;8.20;;;2.90;;
11771;SDS011;12556;55.748;13.194;2022-07-29T02:47:07;4.23;;;2.13;;
11771;SDS011;12556;55.748;13.194;2022-07-29T02:49:38;4.10;;;2.60;;
11771;SDS011;12556;55.748;13.194;2022-07-29T02:52:16;6.87;;;2.80;;
11771;SDS011;12556;55.748;13.194;2022-07-29T02:54:49;6.43;;;2.63;;
11771;SDS011;12556;55.748;13.194;2022-07-29T02:57:21;3.63;;;2.20;;
11771;SDS011;12556;55.748;13.194;2022-07-29T02:59:54;10.80;;;2.63;;
11771;SDS011;12556;55.748;13.194;2022-07-29T03:02:25;8.67;;;2.33;;
11771;SDS011;12556;55.748;13.194;2022-07-29T03:04:54;5.23;;;2.23;;
11771;SDS011;12556;55.748;13.194;2022-07-29T03:07:22;10.53;;;2.60;;
11771;SDS011;12556;55.748;13.194;2022-07-29T03:09:50;6.47;;;2.80;;
11771;SDS011;12556;55.748;13.194;2022-07-29T03:12:17;7.83;;;3.10;;
11771;SDS011;12556;55.748;13.194;2022-07-29T03:14:45;6.00;;;2.73;;
11771;SDS011;12556;55.748;13.194;2022-07-29T03:17:13;8.13;;;2.97;;
11771;SDS011;12556;55.748;13.194;2022-07-29T03:19:41;8.47;;;2.63;;
11771;SDS011;12556;55.748;13.194;2022-07-29T03:22:09;4.67;;;2.90;;
11771;SDS011;12556;55.748;13.194;2022-07-29T03:24:37;6.57;;;2.90;;
11771;SDS011;12556;55.748;13.194;2022-07-29T03:27:04;11.83;;;3.00;;
11771;SDS011;12556;55.748;13.194;2022-07-29T03:29:31;6.43;;;2.70;;
11771;SDS011;12556;55.748;13.194;2022-07-29T03:31:59;8.30;;;3.17;;
11771;SDS011;12556;55.748;13.194;2022-07-29T03:34:27;8.80;;;2.63;;
11771;SDS011;12556;55.748;13.194;2022-07-29T03:36:54;6.60;;;2.60;;
11771;SDS011;12556;55.748;13.194;2022-07-29T03:39:23;5.97;;;2.53;;
11771;SDS011;12556;55.748;13.194;2022-07-29T03:41:55;6.57;;;3.00;;
11771;SDS011;12556;55.748;13.194;2022-07-29T03:44:24;10.13;;;2.80;;
11771;SDS011;12556;55.748;13.194;2022-07-29T03:46:52;8.07;;;3.30;;
11771;SDS011;12556;55.748;13.194;2022-07-29T03:49:21;5.30;;;2.57;;
11771;SDS011;12556;55.748;13.194;2022-07-29T03:51:50;4.33;;;2.70;;
11771;SDS011;12556;55.748;13.194;2022-07-29T03:54:17;7.20;;;2.83;;
11771;SDS011;12556;55.748;13.194;2022-07-29T03:56:46;10.47;;;3.40;;
11771;SDS011;12556;55.748;13.194;2022-07-29T03:59:15;7.23;;;2.80;;
11771;SDS011;12556;55.748;13.194;2022-07-29T04:01:44;11.37;;;3.37;;
11771;SDS011;12556;55.748;13.194;2022-07-29T04:04:12;9.13;;;2.73;;
11771;SDS011;12556;55.748;13.194;2022-07-29T04:06:39;9.10;;;2.93;;
11771;SDS011;12556;55.748;13.194;2022-07-29T04:09:06;8.23;;;2.47;;
11771;SDS011;12556;55.748;13.194;2022-07-29T04:11:34;7.43;;;3.40;;
11771;SDS011;12556;55.748;13.194;2022-07-29T04:14:03;6.77;;;3.27;;
11771;SDS011;12556;55.748;13.194;2022-07-29T04:16:30;9.40;;;3.07;;
11771;SDS011;12556;55.748;13.194;2022-07-29T04:18:57;10.17;;;3.27;;
11771;SDS011;12556;55.748;13.194;2022-07-29T04:21:24;7.73;;;3.40;;
11771;SDS011;12556;55.748;13.194;2022-07-29T04:23:51;7.57;;;3.17;;
11771;SDS011;12556;55.748;13.194;2022-07-29T04:26:18;7.70;;;3.20;;
11771;SDS011;12556;55.748;13.194;2022-07-29T04:28:45;5.07;;;2.80;;
11771;SDS011;12556;55.748;13.194;2022-07-29T04:31:13;5.87;;;2.53;;
11771;SDS011;12556;55.748;13.194;2022-07-29T04:33:40;8.63;;;3.10;;
11771;SDS011;12556;55.748;13.194;2022-07-29T04:36:07;9.37;;;3.53;;
11771;SDS011;12556;55.748;13.194;2022-07-29T04:41:11;6.10;;;3.63;;
11771;SDS011;12556;55.748;13.194;2022-07-29T04:43:38;9.70;;;3.77;;
11771;SDS011;12556;55.748;13.194;2022-07-29T04:46:06;10.70;;;3.80;;
11771;SDS011;12556;55.748;13.194;2022-07-29T04:48:34;8.17;;;3.80;;
11771;SDS011;12556;55.748;13.194;2022-07-29T04:51:01;14.23;;;4.20;;
11771;SDS011;12556;55.748;13.194;2022-07-29T04:53:28;6.50;;;3.53;;
11771;SDS011;12556;55.748;13.194;2022-07-29T04:55:55;10.50;;;3.90;;
11771;SDS011;12556;55.748;13.194;2022-07-29T04:58:23;12.23;;;4.33;;
11771;SDS011;12556;55.748;13.194;2022-07-29T05:00:50;11.27;;;4.57;;
11771;SDS011;12556;55.748;13.194;2022-07-29T05:03:17;6.60;;;3.77;;
11771;SDS011;12556;55.748;13.194;2022-07-29T05:05:45;9.13;;;4.73;;
11771;SDS011;12556;55.748;13.194;2022-07-29T05:08:12;6.20;;;4.20;;
11771;SDS011;12556;55.748;13.194;2022-07-29T05:10:39;6.77;;;3.83;;
11771;SDS011;12556;55.748;13.194;2022-07-29T05:13:06;5.67;;;3.70;;
11771;SDS011;12556;55.748;13.194;2022-07-29T05:15:33;8.43;;;4.67;;
11771;SDS011;12556;55.748;13.194;2022-07-29T05:18:01;7.33;;;4.23;;
11771;SDS011;12556;55.748;13.194;2022-07-29T05:20:29;8.90;;;4.30;;
11771;SDS011;12556;55.748;13.194;2022-07-29T05:22:58;6.90;;;3.67;;
11771;SDS011;12556;55.748;13.194;2022-07-29T05:25:26;8.17;;;4.17;;
11771;SDS011;12556;55.748;13.194;2022-07-29T05:27:54;7.07;;;4.00;;
11771;SDS011;12556;55.748;13.194;2022-07-29T05:30:21;9.80;;;3.93;;
11771;SDS011;12556;55.748;13.194;2022-07-29T05:32:48;4.47;;;3.70;;
11771;SDS011;12556;55.748;13.194;2022-07-29T05:35:15;7.43;;;3.87;;
11771;SDS011;12556;55.748;13.194;2022-07-29T05:37:42;9.90;;;3.40;;
11771;SDS011;12556;55.748;13.194;2022-07-29T05:40:11;7.20;;;3.10;;
11771;SDS011;12556;55.748;13.194;2022-07-29T05:42:38;4.73;;;3.03;;
11771;SDS011;12556;55.748;13.194;2022-07-29T05:45:05;8.27;;;3.20;;
11771;SDS011;12556;55.748;13.194;2022-07-29T05:47:32;3.87;;;2.80;;
11771;SDS011;12556;55.748;13.194;2022-07-29T05:49:59;8.57;;;3.20;;
11771;SDS011;12556;55.748;13.194;2022-07-29T05:52:26;5.20;;;2.60;;
11771;SDS011;12556;55.748;13.194;2022-07-29T05:54:53;5.97;;;3.03;;
11771;SDS011;12556;55.748;13.194;2022-07-29T05:57:23;4.60;;;2.77;;
11771;SDS011;12556;55.748;13.194;2022-07-29T05:59:51;6.33;;;2.60;;
11771;SDS011;12556;55.748;13.194;2022-07-29T06:02:18;5.70;;;2.53;;
11771;SDS011;12556;55.748;13.194;2022-07-29T06:04:45;6.93;;;2.60;;
11771;SDS011;12556;55.748;13.194;2022-07-29T06:07:12;5.90;;;2.80;;
11771;SDS011;12556;55.748;13.194;2022-07-29T06:09:39;5.10;;;2.47;;
11771;SDS011;12556;55.748;13.194;2022-07-29T06:12:06;4.40;;;2.50;;
11771;SDS011;12556;55.748;13.194;2022-07-29T06:14:35;4.80;;;2.37;;
11771;SDS011;12556;55.748;13.194;2022-07-29T06:17:03;4.43;;;1.90;;
11771;SDS011;12556;55.748;13.194;2022-07-29T06:19:30;5.87;;;2.53;;
11771;SDS011;12556;55.748;13.194;2022-07-29T06:21:57;6.80;;;2.57;;
11771;SDS011;12556;55.748;13.194;2022-07-29T06:24:25;4.70;;;2.20;;
11771;SDS011;12556;55.748;13.194;2022-07-29T06:26:52;3.70;;;1.90;;
11771;SDS011;12556;55.748;13.194;2022-07-29T06:29:19;10.87;;;2.47;;
11771;SDS011;12556;55.748;13.194;2022-07-29T06:31:47;3.73;;;1.90;;
11771;SDS011;12556;55.748;13.194;2022-07-29T06:34:14;5.47;;;1.70;;
11771;SDS011;12556;55.748;13.194;2022-07-29T06:36:41;3.67;;;2.00;;
11771;SDS011;12556;55.748;13.194;2022-07-29T06:39:08;6.33;;;1.83;;
11771;SDS011;12556;55.748;13.194;2022-07-29T06:41:35;6.80;;;1.93;;
11771;SDS011;12556;55.748;13.194;2022-07-29T06:44:02;5.80;;;2.03;;
11771;SDS011;12556;55.748;13.194;2022-07-29T06:46:30;6.00;;;1.80;;
11771;SDS011;12556;55.748;13.194;2022-07-29T06:48:59;4.70;;;2.00;;
11771;SDS011;12556;55.748;13.194;2022-07-29T06:51:27;2.70;;;1.57;;
11771;SDS011;12556;55.748;13.194;2022-07-29T06:53:54;5.67;;;1.90;;
11771;SDS011;12556;55.748;13.194;2022-07-29T06:56:22;6.78;;;1.63;;
11771;SDS011;12556;55.748;13.194;2022-07-29T06:58:49;3.38;;;1.40;;
11771;SDS011;12556;55.748;13.194;2022-07-29T07:01:16;5.15;;;1.60;;
11771;SDS011;12556;55.748;13.194;2022-07-29T07:03:44;3.05;;;1.73;;
11771;SDS011;12556;55.748;13.194;2022-07-29T07:06:13;4.55;;;1.70;;
11771;SDS011;12556;55.748;13.194;2022-07-29T07:08:39;3.35;;;1.80;;
11771;SDS011;12556;55.748;13.194;2022-07-29T07:11:06;4.22;;;1.70;;
11771;SDS011;12556;55.748;13.194;2022-07-29T07:13:34;4.65;;;1.92;;
11771;SDS011;12556;55.748;13.194;2022-07-29T07:16:01;4.35;;;1.52;;
11771;SDS011;12556;55.748;13.194;2022-07-29T07:18:29;7.18;;;1.58;;
11771;SDS011;12556;55.748;13.194;2022-07-29T07:20:56;2.78;;;1.40;;
11771;SDS011;12556;55.748;13.194;2022-07-29T07:23:25;4.68;;;1.48;;
11771;SDS011;12556;55.748;13.194;2022-07-29T07:25:51;6.95;;;1.63;;
11771;SDS011;12556;55.748;13.194;2022-07-29T07:28:19;4.55;;;1.77;;
11771;SDS011;12556;55.748;13.194;2022-07-29T07:30:46;3.28;;;1.60;;
11771;SDS011;12556;55.748;13.194;2022-07-29T07:33:13;3.05;;;1.55;;
11771;SDS011;12556;55.748;13.194;2022-07-29T07:35:40;4.10;;;1.80;;
11771;SDS011;12556;55.748;13.194;2022-07-29T07:38:07;3.60;;;1.50;;
11771;SDS011;12556;55.748;13.194;2022-07-29T07:40:36;2.40;;;1.58;;
11771;SDS011;12556;55.748;13.194;2022-07-29T07:43:03;3.20;;;1.50;;
11771;SDS011;12556;55.748;13.194;2022-07-29T07:45:30;3.72;;;1.75;;
11771;SDS011;12556;55.748;13.194;2022-07-29T07:47:58;3.90;;;1.30;;
11771;SDS011;12556;55.748;13.194;2022-07-29T07:50:25;2.42;;;1.55;;
11771;SDS011;12556;55.748;13.194;2022-07-29T07:52:53;3.42;;;1.60;;
11771;SDS011;12556;55.748;13.194;2022-07-29T07:55:22;5.18;;;1.30;;
11771;SDS011;12556;55.748;13.194;2022-07-29T07:57:51;2.80;;;1.50;;
11771;SDS011;12556;55.748;13.194;2022-07-29T08:00:18;3.00;;;1.60;;
11771;SDS011;12556;55.748;13.194;2022-07-29T08:02:46;2.65;;;1.65;;
11771;SDS011;12556;55.748;13.194;2022-07-29T08:05:13;1.85;;;1.67;;
11771;SDS011;12556;55.748;13.194;2022-07-29T08:07:42;2.47;;;1.58;;
11771;SDS011;12556;55.748;13.194;2022-07-29T08:10:11;3.75;;;1.80;;
11771;SDS011;12556;55.748;13.194;2022-07-29T08:12:38;2.13;;;1.50;;
11771;SDS011;12556;55.748;13.194;2022-07-29T08:15:07;2.83;;;1.25;;
11771;SDS011;12556;55.748;13.194;2022-07-29T08:17:34;2.50;;;1.50;;
11771;SDS011;12556;55.748;13.194;2022-07-29T08:20:02;3.25;;;1.65;;
11771;SDS011;12556;55.748;13.194;2022-07-29T08:22:30;2.00;;;1.50;;
11771;SDS011;12556;55.748;13.194;2022-07-29T08:24:57;3.70;;;1.67;;
11771;SDS011;12556;55.748;13.194;2022-07-29T08:27:24;2.65;;;1.58;;
11771;SDS011;12556;55.748;13.194;2022-07-29T08:29:53;1.98;;;1.35;;
11771;SDS011;12556;55.748;13.194;2022-07-29T08:32:22;3.30;;;1.50;;
11771;SDS011;12556;55.748;13.194;2022-07-29T08:34:49;1.98;;;1.27;;
11771;SDS011;12556;55.748;13.194;2022-07-29T08:37:16;2.90;;;1.40;;
11771;SDS011;12556;55.748;13.194;2022-07-29T08:39:43;3.50;;;1.45;;
11771;SDS011;12556;55.748;13.194;2022-07-29T08:42:10;3.22;;;1.45;;
11771;SDS011;12556;55.748;13.194;2022-07-29T08:44:37;3.00;;;1.55;;
11771;SDS011;12556;55.748;13.194;2022-07-29T08:47:04;3.85;;;1.63;;
11771;SDS011;12556;55.748;13.194;2022-07-29T08:49:34;6.05;;;1.92;;
11771;SDS011;12556;55.748;13.194;2022-07-29T08:52:01;2.78;;;2.13;;
11771;SDS011;12556;55.748;13.194;2022-07-29T08:54:29;2.50;;;1.20;;
11771;SDS011;12556;55.748;13.194;2022-07-29T08:56:56;3.00;;;1.50;;
11771;SDS011;12556;55.748;13.194;2022-07-29T08:59:24;2.38;;;1.50;;
11771;SDS011;12556;55.748;13.194;2022-07-29T09:01:53;2.90;;;1.70;;
11771;SDS011;12556;55.748;13.194;2022-07-29T09:04:24;3.20;;;1.60;;
11771;SDS011;12556;55.748;13.194;2022-07-29T09:06:57;2.72;;;1.63;;
11771;SDS011;12556;55.748;13.194;2022-07-29T09:09:26;3.15;;;1.33;;
11771;SDS011;12556;55.748;13.194;2022-07-29T09:11:54;1.67;;;1.10;;
11771;SDS011;12556;55.748;13.194;2022-07-29T09:14:21;2.50;;;1.45;;
11771;SDS011;12556;55.748;13.194;2022-07-29T09:16:50;2.33;;;1.30;;
11771;SDS011;12556;55.748;13.194;2022-07-29T09:19:19;1.40;;;1.30;;
11771;SDS011;12556;55.748;13.194;2022-07-29T09:21:47;1.92;;;1.10;;
11771;SDS011;12556;55.748;13.194;2022-07-29T09:24:39;3.40;;;1.60;;
11771;SDS011;12556;55.748;13.194;2022-07-29T09:27:08;1.73;;;1.58;;
11771;SDS011;12556;55.748;13.194;2022-07-29T09:29:36;2.42;;;1.40;;
11771;SDS011;12556;55.748;13.194;2022-07-29T09:32:05;3.75;;;1.50;;
11771;SDS011;12556;55.748;13.194;2022-07-29T09:34:34;2.85;;;1.42;;
11771;SDS011;12556;55.748;13.194;2022-07-29T09:37:01;2.53;;;1.20;;
11771;SDS011;12556;55.748;13.194;2022-07-29T09:39:30;2.13;;;1.30;;
11771;SDS011;12556;55.748;13.194;2022-07-29T09:42:01;2.25;;;1.33;;
11771;SDS011;12556;55.748;13.194;2022-07-29T09:44:43;3.25;;;1.70;;
11771;SDS011;12556;55.748;13.194;2022-07-29T09:47:11;2.08;;;1.20;;
11771;SDS011;12556;55.748;13.194;2022-07-29T09:52:23;2.60;;;1.40;;
11771;SDS011;12556;55.748;13.194;2022-07-29T09:54:50;2.63;;;1.30;;
11771;SDS011;12556;55.748;13.194;2022-07-29T09:57:24;1.90;;;1.20;;
11771;SDS011;12556;55.748;13.194;2022-07-29T09:59:55;2.65;;;1.40;;
11771;SDS011;12556;55.748;13.194;2022-07-29T10:02:27;4.70;;;1.40;;
11771;SDS011;12556;55.748;13.194;2022-07-29T10:04:56;2.17;;;1.30;;
11771;SDS011;12556;55.748;13.194;2022-07-29T10:07:23;4.45;;;1.42;;
11771;SDS011;12556;55.748;13.194;2022-07-29T10:09:52;2.65;;;1.20;;
11771;SDS011;12556;55.748;13.194;2022-07-29T10:12:20;3.55;;;1.38;;
11771;SDS011;12556;55.748;13.194;2022-07-29T10:14:49;1.35;;;1.25;;
11771;SDS011;12556;55.748;13.194;2022-07-29T10:17:17;3.05;;;1.80;;
11771;SDS011;12556;55.748;13.194;2022-07-29T10:19:44;6.82;;;1.70;;
11771;SDS011;12556;55.748;13.194;2022-07-29T10:22:12;3.20;;;1.45;;
11771;SDS011;12556;55.748;13.194;2022-07-29T10:24:39;5.65;;;1.42;;
11771;SDS011;12556;55.748;13.194;2022-07-29T10:27:06;2.00;;;1.38;;
11771;SDS011;12556;55.748;13.194;2022-07-29T10:29:35;2.17;;;1.45;;
11771;SDS011;12556;55.748;13.194;2022-07-29T10:32:10;4.85;;;1.50;;
11771;SDS011;12556;55.748;13.194;2022-07-29T10:34:51;4.38;;;1.42;;
11771;SDS011;12556;55.748;13.194;2022-07-29T10:37:43;2.25;;;1.30;;
11771;SDS011;12556;55.748;13.194;2022-07-29T10:40:23;1.65;;;1.25;;
11771;SDS011;12556;55.748;13.194;2022-07-29T10:43:16;5.30;;;1.60;;
11771;SDS011;12556;55.748;13.194;2022-07-29T10:45:48;2.92;;;1.45;;
11771;SDS011;12556;55.748;13.194;2022-07-29T10:48:21;2.67;;;1.27;;
11771;SDS011;12556;55.748;13.194;2022-07-29T10:50:55;3.17;;;1.38;;
11771;SDS011;12556;55.748;13.194;2022-07-29T10:53:24;2.85;;;1.20;;
11771;SDS011;12556;55.748;13.194;2022-07-29T10:56:22;2.20;;;1.40;;
11771;SDS011;12556;55.748;13.194;2022-07-29T11:01:53;2.00;;;1.13;;
11771;SDS011;12556;55.748;13.194;2022-07-29T11:07:24;4.28;;;1.30;;
11771;SDS011;12556;55.748;13.194;2022-07-29T11:12:46;4.40;;;1.50;;
11771;SDS011;12556;55.748;13.194;2022-07-29T11:15:14;2.40;;;1.50;;
11771;SDS011;12556;55.748;13.194;2022-07-29T11:18:04;3.13;;;1.10;;
11771;SDS011;12556;55.748;13.194;2022-07-29T11:20:38;2.05;;;1.40;;
11771;SDS011;12556;55.748;13.194;2022-07-29T11:26:16;3.65;;;1.60;;
11771;SDS011;12556;55.748;13.194;2022-07-29T11:28:54;1.35;;;1.17;;
11771;SDS011;12556;55.748;13.194;2022-07-29T11:31:33;2.33;;;1.30;;
11771;SDS011;12556;55.748;13.194;2022-07-29T11:37:17;2.20;;;1.10;;
11771;SDS011;12556;55.748;13.194;2022-07-29T11:39:46;2.28;;;1.40;;
11771;SDS011;12556;55.748;13.194;2022-07-29T11:42:40;2.30;;;1.60;;
11771;SDS011;12556;55.748;13.194;2022-07-29T11:45:15;2.22;;;1.48;;
11771;SDS011;12556;55.748;13.194;2022-07-29T11:47:52;3.95;;;1.77;;
11771;SDS011;12556;55.748;13.194;2022-07-29T11:50:34;1.88;;;1.10;;
11771;SDS011;12556;55.748;13.194;2022-07-29T11:53:03;2.38;;;1.10;;
11771;SDS011;12556;55.748;13.194;2022-07-29T11:55:37;2.33;;;1.40;;
11771;SDS011;12556;55.748;13.194;2022-07-29T11:58:05;2.00;;;1.20;;
11771;SDS011;12556;55.748;13.194;2022-07-29T12:00:33;2.28;;;1.70;;
11771;SDS011;12556;55.748;13.194;2022-07-29T12:03:04;3.08;;;1.40;;
11771;SDS011;12556;55.748;13.194;2022-07-29T12:05:35;1.83;;;1.30;;
11771;SDS011;12556;55.748;13.194;2022-07-29T12:08:04;2.40;;;1.45;;
11771;SDS011;12556;55.748;13.194;2022-07-29T12:10:35;2.15;;;1.58;;
11771;SDS011;12556;55.748;13.194;2022-07-29T12:13:03;2.20;;;1.55;;
11771;SDS011;12556;55.748;13.194;2022-07-29T12:15:30;3.33;;;1.55;;
11771;SDS011;12556;55.748;13.194;2022-07-29T12:17:57;2.80;;;1.65;;
11771;SDS011;12556;55.748;13.194;2022-07-29T12:20:25;4.63;;;1.80;;
11771;SDS011;12556;55.748;13.194;2022-07-29T12:22:54;4.40;;;1.67;;
11771;SDS011;12556;55.748;13.194;2022-07-29T12:25:22;3.88;;;1.55;;
11771;SDS011;12556;55.748;13.194;2022-07-29T12:27:59;3.95;;;1.52;;
11771;SDS011;12556;55.748;13.194;2022-07-29T12:30:35;2.78;;;1.30;;
11771;SDS011;12556;55.748;13.194;2022-07-29T12:33:10;2.28;;;1.65;;
11771;SDS011;12556;55.748;13.194;2022-07-29T12:35:39;2.55;;;1.73;;
11771;SDS011;12556;55.748;13.194;2022-07-29T12:38:10;2.17;;;1.60;;
11771;SDS011;12556;55.748;13.194;2022-07-29T12:40:37;3.22;;;1.45;;
11771;SDS011;12556;55.748;13.194;2022-07-29T12:43:05;2.72;;;1.30;;
11771;SDS011;12556;55.748;13.194;2022-07-29T12:45:34;2.13;;;1.52;;
11771;SDS011;12556;55.748;13.194;2022-07-29T12:48:02;1.65;;;1.40;;
11771;SDS011;12556;55.748;13.194;2022-07-29T12:50:29;1.30;;;1.20;;
11771;SDS011;12556;55.748;13.194;2022-07-29T12:53:07;4.95;;;1.63;;
11771;SDS011;12556;55.748;13.194;2022-07-29T12:55:42;3.17;;;1.67;;
11771;SDS011;12556;55.748;13.194;2022-07-29T12:58:13;1.77;;;1.30;;
11771;SDS011;12556;55.748;13.194;2022-07-29T13:00:58;2.15;;;1.30;;
11771;SDS011;12556;55.748;13.194;2022-07-29T13:03:27;2.33;;;1.40;;
11771;SDS011;12556;55.748;13.194;2022-07-29T13:05:54;4.13;;;1.73;;
11771;SDS011;12556;55.748;13.194;2022-07-29T13:08:22;3.15;;;1.50;;
11771;SDS011;12556;55.748;13.194;2022-07-29T13:10:50;1.60;;;1.50;;
11771;SDS011;12556;55.748;13.194;2022-07-29T13:13:17;3.30;;;2.10;;
11771;SDS011;12556;55.748;13.194;2022-07-29T13:15:44;2.28;;;1.50;;
11771;SDS011;12556;55.748;13.194;2022-07-29T13:18:28;3.20;;;1.60;;
11771;SDS011;12556;55.748;13.194;2022-07-29T13:20:56;3.28;;;1.60;;
11771;SDS011;12556;55.748;13.194;2022-07-29T13:23:37;2.60;;;1.58;;
11771;SDS011;12556;55.748;13.194;2022-07-29T13:26:05;3.10;;;2.08;;
11771;SDS011;12556;55.748;13.194;2022-07-29T13:28:32;4.53;;;2.20;;
11771;SDS011;12556;55.748;13.194;2022-07-29T13:31:00;2.33;;;1.70;;
11771;SDS011;12556;55.748;13.194;2022-07-29T13:33:27;2.60;;;1.40;;
11771;SDS011;12556;55.748;13.194;2022-07-29T13:35:55;2.75;;;1.60;;
11771;SDS011;12556;55.748;13.194;2022-07-29T13:38:22;3.50;;;2.15;;
11771;SDS011;12556;55.748;13.194;2022-07-29T13:40:50;3.63;;;1.55;;
11771;SDS011;12556;55.748;13.194;2022-07-29T13:43:17;4.90;;;1.83;;
11771;SDS011;12556;55.748;13.194;2022-07-29T13:45:44;4.68;;;1.85;;
11771;SDS011;12556;55.748;13.194;2022-07-29T13:48:11;2.20;;;1.63;;
11771;SDS011;12556;55.748;13.194;2022-07-29T13:50:38;3.50;;;1.83;;
11771;SDS011;12556;55.748;13.194;2022-07-29T13:53:05;2.88;;;1.67;;
11771;SDS011;12556;55.748;13.194;2022-07-29T13:55:31;1.88;;;1.48;;
11771;SDS011;12556;55.748;13.194;2022-07-29T13:58:00;1.80;;;1.52;;
11771;SDS011;12556;55.748;13.194;2022-07-29T14:00:27;3.05;;;1.65;;
11771;SDS011;12556;55.748;13.194;2022-07-29T14:02:54;2.40;;;1.30;;
11771;SDS011;12556;55.748;13.194;2022-07-29T14:05:21;3.05;;;1.73;;
11771;SDS011;12556;55.748;13.194;2022-07-29T14:07:48;2.85;;;1.92;;
11771;SDS011;12556;55.748;13.194;2022-07-29T14:10:15;3.33;;;1.60;;
11771;SDS011;12556;55.748;13.194;2022-07-29T14:12:42;2.20;;;1.30;;
11771;SDS011;12556;55.748;13.194;2022-07-29T14:15:11;2.90;;;1.55;;
11771;SDS011;12556;55.748;13.194;2022-07-29T14:17:37;3.60;;;1.70;;
11771;SDS011;12556;55.748;13.194;2022-07-29T14:20:05;2.15;;;1.60;;
11771;SDS011;12556;55.748;13.194;2022-07-29T14:22:32;3.00;;;1.65;;
11771;SDS011;12556;55.748;13.194;2022-07-29T14:24:59;3.70;;;1.98;;
11771;SDS011;12556;55.748;13.194;2022-07-29T14:27:26;2.47;;;1.30;;
11771;SDS011;12556;55.748;13.194;2022-07-29T14:29:53;3.70;;;2.10;;
11771;SDS011;12556;55.748;13.194;2022-07-29T14:32:21;2.72;;;1.52;;
11771;SDS011;12556;55.748;13.194;2022-07-29T14:34:48;2.70;;;1.73;;
11771;SDS011;12556;55.748;13.194;2022-07-29T14:37:15;2.80;;;1.98;;
11771;SDS011;12556;55.748;13.194;2022-07-29T14:39:42;2.28;;;1.52;;
11771;SDS011;12556;55.748;13.194;2022-07-29T14:42:09;3.78;;;1.70;;
11771;SDS011;12556;55.748;13.194;2022-07-29T14:44:37;3.13;;;1.58;;
11771;SDS011;12556;55.748;13.194;2022-07-29T14:47:06;2.75;;;1.67;;
11771;SDS011;12556;55.748;13.194;2022-07-29T14:49:34;3.10;;;1.83;;
11771;SDS011;12556;55.748;13.194;2022-07-29T14:52:02;2.17;;;1.73;;
11771;SDS011;12556;55.748;13.194;2022-07-29T14:54:29;2.47;;;1.55;;
11771;SDS011;12556;55.748;13.194;2022-07-29T14:56:56;1.75;;;1.50;;
11771;SDS011;12556;55.748;13.194;2022-07-29T14:59:23;4.35;;;1.92;;
11771;SDS011;12556;55.748;13.194;2022-07-29T15:01:50;4.43;;;1.90;;
11771;SDS011;12556;55.748;13.194;2022-07-29T15:04:17;2.75;;;1.50;;
11771;SDS011;12556;55.748;13.194;2022-07-29T15:06:46;2.05;;;1.83;;
11771;SDS011;12556;55.748;13.194;2022-07-29T15:09:13;1.90;;;1.40;;
11771;SDS011;12556;55.748;13.194;2022-07-29T15:11:40;3.47;;;1.50;;